Time;durP1;ratioP1;P1;durP2;ratioP2;P2;SDS_P1;SDS_P2;PMS_P1;PMS_P2;Temp;Humidity;BMP_temperature;BMP_pressure;BME280_temperature;BME280_humidity;BME280_pressure;Samples;Min_cycle;Max_cycle;Signal;HPM_P1;HPM_P2
2021/12/29 00:01:27;;;;;;;27.60;14.23;;;;;;;1.01;90.10;98989.88;1738958;81;21516;-73
2021/12/29 00:03:54;;;;;;;24.73;12.47;;;;;;;1.01;90.15;98992.02;1739637;81;21220;-73
2021/12/29 00:06:21;;;;;;;32.33;13.93;;;;;;;1.02;90.13;98996.28;1739393;82;21070;-73
2021/12/29 00:08:48;;;;;;;26.13;12.57;;;;;;;1.03;90.19;98992.00;1739169;81;22143;-73
2021/12/29 00:11:15;;;;;;;25.57;10.93;;;;;;;1.03;90.25;98990.70;1748754;81;21042;-73
2021/12/29 00:13:43;;;;;;;23.60;11.53;;;;;;;1.04;90.24;98994.53;1739016;81;21221;-72
2021/12/29 00:16:10;;;;;;;31.77;12.63;;;;;;;1.03;90.22;99001.87;1739162;82;21226;-73
2021/12/29 00:18:37;;;;;;;20.03;8.80;;;;;;;1.04;90.31;98998.40;1750459;81;21062;-73
2021/12/29 00:21:07;;;;;;;27.73;12.80;;;;;;;1.04;90.31;99002.27;1706147;84;21072;-72
2021/12/29 00:23:34;;;;;;;22.80;10.10;;;;;;;1.05;90.37;98987.22;1698638;84;21047;-73
2021/12/29 00:26:01;;;;;;;15.00;7.53;;;;;;;1.06;90.37;98988.06;1713935;83;21803;-73
2021/12/29 00:28:28;;;;;;;21.53;8.80;;;;;;;1.05;90.27;98996.66;1683118;84;21141;-73
2021/12/29 00:30:55;;;;;;;17.40;7.60;;;;;;;1.04;90.43;98998.40;1704016;84;21050;-73
2021/12/29 00:33:40;;;;;;;19.53;9.43;;;;;;;1.05;90.45;99000.12;1706536;84;21058;-73
2021/12/29 00:36:27;;;;;;;25.30;9.50;;;;;;;1.05;90.53;99001.41;1706344;84;21484;-72
2021/12/29 00:39:06;;;;;;;25.43;9.20;;;;;;;1.05;90.54;99009.15;1615589;88;21582;-72
2021/12/29 00:41:38;;;;;;;27.20;10.93;;;;;;;1.06;90.61;99017.29;1701367;83;21217;-73
2021/12/29 00:44:16;;;;;;;17.63;8.10;;;;;;;1.05;90.53;99015.59;1696445;82;21013;-73
2021/12/29 00:47:03;;;;;;;22.63;9.70;;;;;;;1.07;90.64;99013.81;1709524;82;21035;-72
2021/12/29 00:49:33;;;;;;;12.83;7.17;;;;;;;1.07;90.69;99012.52;1679657;84;21676;-73
2021/12/29 00:52:05;;;;;;;11.53;6.70;;;;;;;1.07;90.70;99015.10;1703654;83;22237;-73
2021/12/29 00:54:31;;;;;;;12.53;7.23;;;;;;;1.08;90.70;99015.95;1706480;84;22027;-73
2021/12/29 00:56:59;;;;;;;12.63;6.90;;;;;;;1.08;90.64;99009.08;1706683;84;21042;-73
2021/12/29 00:59:26;;;;;;;13.43;6.97;;;;;;;1.08;90.72;99007.80;1706732;82;21019;-73
2021/12/29 01:01:53;;;;;;;14.40;7.43;;;;;;;1.10;90.83;99011.61;1702754;82;21532;-73
2021/12/29 01:04:21;;;;;;;11.57;6.60;;;;;;;1.09;90.78;99004.77;1703482;84;21182;-73
2021/12/29 01:06:49;;;;;;;9.77;6.00;;;;;;;1.10;90.83;99013.75;1689775;84;21564;-73
2021/12/29 01:09:16;;;;;;;11.93;5.50;;;;;;;1.13;90.86;99010.70;1704555;84;21059;-73
2021/12/29 01:11:43;;;;;;;8.27;5.30;;;;;;;1.15;90.89;99016.69;1683623;84;21078;-73
2021/12/29 01:14:10;;;;;;;11.27;5.40;;;;;;;1.13;90.79;99014.57;1703579;83;22147;-73
2021/12/29 01:16:38;;;;;;;10.77;6.63;;;;;;;1.15;90.95;99021.85;1704085;84;21047;-73
2021/12/29 01:19:13;;;;;;;10.57;5.47;;;;;;;1.15;90.98;99010.23;1700772;83;22084;-73
2021/12/29 01:21:44;;;;;;;14.47;7.07;;;;;;;1.16;90.95;99020.51;1703350;84;21028;-73
2021/12/29 01:24:12;;;;;;;16.40;7.63;;;;;;;1.15;90.87;99016.24;1706329;84;21051;-73
2021/12/29 01:26:42;;;;;;;11.40;6.00;;;;;;;1.16;90.97;99017.09;1676424;84;21453;-73
2021/12/29 01:29:13;;;;;;;11.15;5.28;;;;;;;1.16;90.98;99026.96;1703537;84;21054;-73
2021/12/29 01:31:42;;;;;;;14.77;6.47;;;;;;;1.17;91.11;99023.97;1704232;84;21530;-73
2021/12/29 01:34:09;;;;;;;13.17;6.20;;;;;;;1.18;91.03;99033.39;1704867;84;21029;-72
2021/12/29 01:36:38;;;;;;;14.07;7.13;;;;;;;1.17;91.04;99036.42;1700835;83;21578;-73
2021/12/29 01:39:11;;;;;;;10.70;5.37;;;;;;;1.17;91.11;99022.23;1705135;84;21031;-73
2021/12/29 01:41:38;;;;;;;8.05;4.70;;;;;;;1.15;91.17;99031.73;1688177;84;21066;-73
2021/12/29 01:44:08;;;;;;;7.97;4.20;;;;;;;1.17;91.11;99035.13;1736288;82;21086;-73
2021/12/29 01:46:36;;;;;;;8.63;4.67;;;;;;;1.18;91.24;99030.37;1703845;84;21023;-73
2021/12/29 01:49:03;;;;;;;13.13;6.33;;;;;;;1.20;91.37;99032.48;1703525;84;21051;-73
2021/12/29 01:51:31;;;;;;;12.40;5.43;;;;;;;1.21;91.31;99042.36;1704888;84;21051;-73
2021/12/29 01:54:14;;;;;;;15.97;6.20;;;;;;;1.23;91.34;99032.86;1677644;85;21533;-73
2021/12/29 01:56:32;;;;;;;18.50;6.40;;;;;;;1.22;91.27;99040.18;1704781;83;21131;-73
2021/12/29 01:58:59;;;;;;;15.77;6.73;;;;;;;1.21;91.30;99034.63;1707062;82;21007;-73
2021/12/29 02:01:27;;;;;;;13.93;4.67;;;;;;;1.22;91.34;99045.34;1682909;84;20963;-73
2021/12/29 02:03:58;;;;;;;13.40;6.03;;;;;;;1.24;91.45;99041.84;1706461;82;21043;-73
2021/12/29 02:06:23;;;;;;;62.57;17.07;;;;;;;1.24;91.37;99043.14;1706305;83;21645;-73
2021/12/29 02:08:53;;;;;;;236.03;63.57;;;;;;;1.26;91.46;99047.84;1706538;82;21771;-73
2021/12/29 02:11:25;;;;;;;90.87;27.33;;;;;;;1.26;91.40;99039.25;1706481;83;21081;-73
2021/12/29 02:13:48;;;;;;;146.87;51.50;;;;;;;1.28;91.52;99041.36;1705636;83;21553;-73
2021/12/29 02:16:15;;;;;;;213.53;82.33;;;;;;;1.32;91.54;99054.60;1706235;84;21051;-73
2021/12/29 02:18:53;;;;;;;22.30;10.13;;;;;;;1.32;91.46;99049.44;1706441;84;21130;-73
2021/12/29 02:21:24;;;;;;;23.03;12.07;;;;;;;1.35;91.58;99050.66;1706486;83;21153;-73
2021/12/29 02:26:29;;;;;;;9.13;5.77;;;;;;;1.28;91.52;99047.82;1705821;83;21070;-74
2021/12/29 02:28:57;;;;;;;12.20;8.20;;;;;;;1.33;91.54;99052.00;1706742;83;21301;-73
2021/12/29 02:31:24;;;;;;;17.07;11.63;;;;;;;1.36;91.59;99055.37;1706533;84;21657;-73
2021/12/29 02:33:52;;;;;;;5.57;3.50;;;;;;;1.34;91.48;99060.14;1706205;83;21930;-73
2021/12/29 02:36:20;;;;;;;9.13;5.00;;;;;;;1.36;91.53;99054.09;1705731;84;21023;-73
2021/12/29 02:38:51;;;;;;;7.20;4.37;;;;;;;1.34;91.43;99061.44;1706295;83;21524;-73
2021/12/29 02:41:16;;;;;;;11.00;5.93;;;;;;;1.37;91.57;99068.72;1686957;84;21007;-73
2021/12/29 02:43:44;;;;;;;7.50;4.23;;;;;;;1.40;91.75;99062.19;1703454;84;21509;-73
2021/12/29 02:46:15;;;;;;;7.30;4.17;;;;;;;1.43;91.69;99060.83;1725375;82;21119;-73
2021/12/29 02:49:02;;;;;;;5.83;3.55;;;;;;;1.42;91.64;99056.12;1732828;82;21085;-73
2021/12/29 02:51:32;;;;;;;7.90;5.20;;;;;;;1.44;91.64;99059.94;1685606;84;21051;-73
2021/12/29 02:54:01;;;;;;;5.87;3.15;;;;;;;1.45;91.70;99057.78;1715950;82;20928;-74
2021/12/29 02:56:29;;;;;;;5.13;2.80;;;;;;;1.43;91.62;99061.67;1676561;83;21312;-74
2021/12/29 02:58:57;;;;;;;4.63;2.60;;;;;;;1.44;91.60;99071.14;1702803;84;21087;-74
2021/12/29 03:01:27;;;;;;;6.33;3.80;;;;;;;1.44;91.53;99067.69;1681080;84;21060;-74
2021/12/29 03:03:59;;;;;;;4.30;2.70;;;;;;;1.41;91.40;99075.05;1665824;85;21033;-74
2021/12/29 03:06:27;;;;;;;4.67;2.83;;;;;;;1.38;91.36;99072.98;1695327;83;21071;-74
2021/12/29 03:08:54;;;;;;;9.70;5.60;;;;;;;1.37;91.30;99074.72;1690688;84;21477;-74
2021/12/29 03:11:21;;;;;;;10.70;5.77;;;;;;;1.37;91.37;99072.14;1695180;84;21946;-74
2021/12/29 03:13:48;;;;;;;6.13;3.13;;;;;;;1.32;91.18;99076.09;1675192;84;21012;-74
2021/12/29 03:16:15;;;;;;;5.67;3.03;;;;;;;1.30;91.04;99079.17;1691722;84;21480;-74
2021/12/29 03:18:43;;;;;;;11.80;5.73;;;;;;;1.25;91.05;99075.83;1695924;84;21040;-74
2021/12/29 03:21:11;;;;;;;35.70;11.77;;;;;;;1.24;91.02;99088.31;1695398;84;21524;-74
2021/12/29 03:23:39;;;;;;;36.87;12.43;;;;;;;1.21;90.98;99080.63;1662979;85;21127;-73
2021/12/29 03:26:06;;;;;;;20.00;8.87;;;;;;;1.16;90.91;99097.09;1664493;85;21057;-73
2021/12/29 03:28:34;;;;;;;18.43;7.10;;;;;;;1.11;90.73;99095.91;1670410;85;20997;-73
2021/12/29 03:31:02;;;;;;;23.17;8.87;;;;;;;1.04;90.55;99097.73;1679834;85;21070;-74
2021/12/29 03:33:29;;;;;;;18.40;7.67;;;;;;;1.04;90.77;99100.77;1670846;85;21580;-74
2021/12/29 03:36:02;;;;;;;15.73;7.10;;;;;;;1.00;90.71;99106.44;1692359;84;21135;-74
2021/12/29 03:38:35;;;;;;;25.93;10.53;;;;;;;0.97;90.70;99106.50;1688944;84;21008;-74
2021/12/29 03:41:05;;;;;;;18.60;7.40;;;;;;;0.97;90.87;99109.48;1675229;84;21564;-73
2021/12/29 03:43:33;;;;;;;;;;;;;;;0.94;90.82;99114.27;1663051;85;21071;-74
2021/12/29 03:46:03;;;;;;;50.03;15.40;;;;;;;0.97;91.19;99113.36;1670343;85;20517;-74
2021/12/29 03:48:32;;;;;;;46.27;14.80;;;;;;;0.96;91.35;99125.41;1670755;85;21592;-73
2021/12/29 03:51:00;;;;;;;24.10;9.10;;;;;;;0.97;91.31;99118.52;1672655;85;21091;-74
2021/12/29 03:53:28;;;;;;;20.70;8.70;;;;;;;0.95;91.29;99117.28;1659063;85;21059;-73
2021/12/29 03:55:55;;;;;;;16.83;7.47;;;;;;;0.95;91.38;99121.59;1693853;84;21059;-73
2021/12/29 03:58:24;;;;;;;16.97;6.47;;;;;;;0.95;91.35;99125.46;1692185;84;21066;-74
2021/12/29 04:00:56;;;;;;;12.90;5.40;;;;;;;0.95;91.40;99130.17;1674987;84;21156;-73
2021/12/29 04:03:24;;;;;;;14.27;6.40;;;;;;;0.95;91.24;99138.36;1725301;81;21067;-74
2021/12/29 04:05:51;;;;;;;11.60;5.60;;;;;;;0.89;91.10;99136.30;1712826;83;21039;-74
2021/12/29 04:08:18;;;;;;;10.53;5.77;;;;;;;0.91;91.33;99140.56;1682733;84;21043;-74
2021/12/29 04:10:45;;;;;;;14.80;5.27;;;;;;;0.92;91.42;99140.55;1715530;83;21055;-74
2021/12/29 04:13:12;;;;;;;11.37;5.47;;;;;;;0.93;91.38;99144.83;1675439;84;21110;-73
2021/12/29 04:15:40;;;;;;;10.40;4.90;;;;;;;0.94;91.34;99149.53;1703199;83;21056;-74
2021/12/29 04:18:15;;;;;;;9.53;4.90;;;;;;;0.92;91.38;99154.74;1711074;83;21028;-74
2021/12/29 04:23:23;;;;;;;11.67;5.90;;;;;;;0.91;91.31;99155.60;1686691;85;21079;-73
2021/12/29 04:25:53;;;;;;;9.20;5.20;;;;;;;0.90;91.29;99157.78;1701805;83;22284;-73
2021/12/29 04:28:22;;;;;;;10.50;5.27;;;;;;;0.89;91.33;99146.62;1699504;84;21455;-73
2021/12/29 04:31:00;;;;;;;9.10;4.80;;;;;;;0.93;91.53;99155.59;1717076;83;21020;-73
2021/12/29 04:33:29;;;;;;;7.67;4.50;;;;;;;0.93;91.45;99153.86;1727891;83;21587;-74
2021/12/29 04:35:56;;;;;;;11.97;6.03;;;;;;;0.93;91.56;99160.75;1728197;83;21004;-73
2021/12/29 04:38:24;;;;;;;12.63;7.03;;;;;;;0.96;91.66;99149.08;1714455;83;21129;-74
2021/12/29 04:40:55;;;;;;;9.33;5.60;;;;;;;0.96;91.69;99160.24;1693994;84;21528;-74
2021/12/29 04:43:24;;;;;;;8.27;5.20;;;;;;;0.97;91.80;99152.06;1699454;84;21511;-73
2021/12/29 04:45:51;;;;;;;8.23;4.70;;;;;;;0.96;91.71;99164.11;1714730;83;21040;-74
2021/12/29 04:48:19;;;;;;;11.53;6.30;;;;;;;0.96;91.68;99160.24;1671462;85;21575;-74
2021/12/29 04:51:04;;;;;;;12.37;7.13;;;;;;;0.95;91.83;99163.72;1690870;83;21140;-74
2021/12/29 04:53:23;;;;;;;8.80;4.77;;;;;;;0.98;91.94;99162.81;1698531;83;21453;-74
2021/12/29 04:55:51;;;;;;;;;;;;;;;0.96;91.86;99169.27;1694150;83;21043;-73
2021/12/29 04:58:21;;;;;;;10.63;6.30;;;;;;;0.98;92.01;99168.81;1700539;83;20140;-74
2021/12/29 05:00:50;;;;;;;10.45;5.85;;;;;;;0.99;92.04;99172.24;1685072;84;21059;-74
2021/12/29 05:03:17;;;;;;;11.13;5.10;;;;;;;1.01;92.20;99175.66;1694021;84;21989;-74
2021/12/29 05:05:57;;;;;;;9.10;5.50;;;;;;;1.01;92.19;99177.79;1693325;83;21088;-73
2021/12/29 05:08:26;;;;;;;7.90;4.73;;;;;;;1.01;92.10;99174.36;1684878;84;20994;-73
2021/12/29 05:11:07;;;;;;;11.03;6.43;;;;;;;1.03;92.14;99181.65;1651984;84;21126;-74
2021/12/29 05:13:38;;;;;;;28.57;16.27;;;;;;;1.04;92.18;99178.17;1705923;83;21159;-73
2021/12/29 05:16:05;;;;;;;;;;;;;;;1.04;92.15;99184.63;1694558;83;21152;-73
2021/12/29 05:18:36;;;;;;;23.20;13.93;;;;;;;1.04;92.18;99191.92;1704730;83;20172;-73
2021/12/29 05:21:06;;;;;;;19.13;12.27;;;;;;;1.02;92.01;99198.83;1718539;83;21043;-73
2021/12/29 05:23:33;;;;;;;18.42;11.38;;;;;;;1.01;91.96;99192.42;1715773;83;21032;-72
2021/12/29 05:26:00;;;;;;;20.60;10.97;;;;;;;0.94;92.01;99198.11;1718509;83;21032;-73
2021/12/29 05:28:28;;;;;;;11.27;6.70;;;;;;;0.99;92.13;99196.75;1718619;83;21220;-73
2021/12/29 05:30:56;;;;;;;52.43;24.13;;;;;;;1.00;92.13;99207.06;1712580;83;21524;-73
2021/12/29 05:33:24;;;;;;;32.03;14.17;;;;;;;1.02;92.14;99210.89;1717830;83;21031;-73
2021/12/29 05:35:51;;;;;;;25.53;11.13;;;;;;;1.00;92.08;99207.06;1698433;83;21071;-73
2021/12/29 05:38:19;;;;;;;13.77;6.30;;;;;;;0.98;92.04;99210.55;1709461;83;21485;-73
2021/12/29 05:40:48;;;;;;;7.87;4.77;;;;;;;0.98;92.13;99201.06;1696540;83;21155;-73
2021/12/29 05:43:15;;;;;;;11.77;6.40;;;;;;;0.98;92.16;99219.12;1703525;83;21043;-73
2021/12/29 05:45:42;;;;;;;13.63;7.93;;;;;;;0.99;92.33;99210.50;1698261;83;20996;-73
2021/12/29 05:48:09;;;;;;;17.77;8.53;;;;;;;0.97;92.08;99237.20;1690558;83;21028;-73
2021/12/29 05:50:37;;;;;;;16.53;8.57;;;;;;;0.96;92.20;99220.03;1690206;84;21046;-73
2021/12/29 05:53:05;;;;;;;21.40;9.80;;;;;;;0.93;92.04;99257.05;1701779;83;21114;-73
2021/12/29 05:55:32;;;;;;;18.83;9.33;;;;;;;0.91;92.20;99229.13;1713720;83;21004;-74
2021/12/29 05:57:59;;;;;;;12.27;7.37;;;;;;;0.94;92.37;99248.87;1695611;83;21042;-74
2021/12/29 06:00:27;;;;;;;30.73;13.63;;;;;;;0.96;92.47;99256.16;1706602;83;21091;-73
2021/12/29 06:02:56;;;;;;;20.13;10.63;;;;;;;0.98;92.55;99248.80;1714560;83;21377;-73
2021/12/29 06:05:24;;;;;;;14.93;8.30;;;;;;;1.00;92.42;99253.51;1674730;85;21940;-72
2021/12/29 06:07:51;;;;;;;12.27;6.77;;;;;;;1.00;92.39;99256.50;1694459;84;21028;-73
2021/12/29 06:10:19;;;;;;;10.63;6.37;;;;;;;1.01;92.37;99254.35;1713102;83;21550;-73
2021/12/29 06:12:46;;;;;;;10.50;5.33;;;;;;;1.02;92.38;99250.44;1699891;84;21007;-73
2021/12/29 06:15:13;;;;;;;11.83;6.07;;;;;;;1.03;92.34;99262.92;1699268;84;21039;-73
2021/12/29 06:17:41;;;;;;;9.70;6.50;;;;;;;1.05;92.39;99272.77;1701857;83;21128;-73
2021/12/29 06:20:11;;;;;;;20.63;9.33;;;;;;;1.05;92.30;99267.60;1677389;85;21612;-73
2021/12/29 06:22:40;;;;;;;25.50;9.73;;;;;;;1.06;92.35;99280.48;1689569;85;21016;-73
2021/12/29 06:25:12;;;;;;;18.97;9.20;;;;;;;1.06;92.42;99292.11;1700832;83;21439;-73
2021/12/29 06:27:39;;;;;;;20.97;8.53;;;;;;;1.10;92.59;99292.89;1699897;84;21042;-73
2021/12/29 06:30:11;;;;;;;19.43;9.37;;;;;;;1.13;92.55;99298.45;1696851;83;21950;-72
2021/12/29 06:32:39;;;;;;;20.47;10.03;;;;;;;1.15;92.59;99298.84;1674774;83;21004;-74
2021/12/29 06:35:09;;;;;;;17.90;8.13;;;;;;;1.16;92.56;99305.69;1703179;83;21574;-73
2021/12/29 06:37:36;;;;;;;15.72;8.63;;;;;;;1.17;92.50;99305.28;1702944;83;20928;-75
2021/12/29 06:40:05;;;;;;;15.63;8.90;;;;;;;1.18;92.39;99312.13;1694276;84;21051;-74
2021/12/29 06:42:33;;;;;;;16.27;8.13;;;;;;;1.17;92.28;99314.31;1674357;84;21985;-74
2021/12/29 06:44:59;;;;;;;16.27;8.13;;;;;;;1.19;92.53;99308.66;1700495;83;21521;-76
2021/12/29 06:47:27;;;;;;;12.27;7.57;;;;;;;1.20;92.47;99316.40;1693609;84;21518;-75
2021/12/29 06:49:54;;;;;;;14.57;7.73;;;;;;;1.22;92.61;99326.27;1716695;83;21002;-75
2021/12/29 06:52:22;;;;;;;16.70;8.70;;;;;;;1.23;92.47;99330.55;1693281;84;21055;-77
2021/12/29 06:54:49;;;;;;;19.40;9.07;;;;;;;1.25;92.46;99330.53;1699052;84;21184;-75
2021/12/29 06:57:16;;;;;;;22.13;10.70;;;;;;;1.27;92.48;99341.66;1671138;85;21007;-74
2021/12/29 06:59:43;;;;;;;22.00;10.17;;;;;;;1.25;92.45;99331.37;1666627;86;21138;-77
2021/12/29 07:02:11;;;;;;;18.13;9.90;;;;;;;1.24;92.31;99343.00;1684882;84;21508;-74
2021/12/29 07:04:39;;;;;;;16.93;8.17;;;;;;;1.24;92.33;99346.88;1703137;84;21372;-74
2021/12/29 07:07:06;;;;;;;14.47;8.27;;;;;;;1.26;92.46;99349.00;1705868;84;21152;-75
2021/12/29 07:09:33;;;;;;;13.60;7.30;;;;;;;1.28;92.62;99347.26;1705525;84;21070;-74
2021/12/29 07:12:01;;;;;;;13.93;7.47;;;;;;;1.28;92.46;99355.00;1706360;84;21082;-75
2021/12/29 07:14:28;;;;;;;15.50;7.43;;;;;;;1.29;92.50;99358.83;1706326;84;21005;-74
2021/12/29 07:16:55;;;;;;;17.17;9.00;;;;;;;1.29;92.46;99365.28;1706032;84;21054;-77
2021/12/29 07:19:22;;;;;;;43.63;23.33;;;;;;;1.30;92.51;99370.88;1705447;84;21378;-76
2021/12/29 07:21:49;;;;;;;56.83;27.90;;;;;;;1.31;92.59;99376.45;1705622;84;21113;-74
2021/12/29 07:24:17;;;;;;;28.57;15.73;;;;;;;1.33;92.56;99374.70;1706658;83;21083;-74
2021/12/29 07:26:44;;;;;;;25.47;15.27;;;;;;;1.34;92.63;99377.69;1706424;83;21040;-74
2021/12/29 07:29:11;;;;;;;27.60;15.57;;;;;;;1.37;92.55;99390.14;1706120;83;21512;-73
2021/12/29 07:31:38;;;;;;;24.37;15.40;;;;;;;1.37;92.59;99384.98;1706672;83;21015;-73
2021/12/29 07:34:07;;;;;;;30.83;18.50;;;;;;;1.37;92.56;99383.69;1706643;84;21035;-72
2021/12/29 07:36:35;;;;;;;30.90;17.57;;;;;;;1.39;92.62;99390.53;1705707;83;21075;-74
2021/12/29 07:39:03;;;;;;;35.83;21.67;;;;;;;1.42;92.62;99402.55;1706825;83;21629;-74
2021/12/29 07:41:30;;;;;;;20.47;11.97;;;;;;;1.44;92.71;99404.64;1706775;83;21015;-73
2021/12/29 07:43:58;;;;;;;18.50;10.33;;;;;;;1.45;92.82;99398.17;1706691;83;21111;-73
2021/12/29 07:46:28;;;;;;;19.07;11.60;;;;;;;1.50;92.95;99402.83;1706826;83;21076;-74
2021/12/29 07:48:53;;;;;;;23.30;12.53;;;;;;;1.55;93.06;99401.44;1706504;83;21582;-74
2021/12/29 07:51:21;;;;;;;20.80;10.87;;;;;;;1.59;93.10;99405.70;1706090;83;21052;-73
2021/12/29 07:53:48;;;;;;;19.03;10.23;;;;;;;1.63;93.06;99415.53;1705014;83;21043;-73
2021/12/29 07:56:16;;;;;;;21.23;10.37;;;;;;;1.65;93.08;99421.53;1706480;83;22359;-74
2021/12/29 07:58:43;;;;;;;15.57;9.90;;;;;;;1.67;93.00;99424.50;1706448;83;21580;-73
2021/12/29 08:01:10;;;;;;;18.63;10.20;;;;;;;1.68;93.02;99431.37;1705766;83;21552;-73
2021/12/29 08:03:40;;;;;;;20.03;10.03;;;;;;;1.69;92.83;99430.92;1705385;83;21074;-73
2021/12/29 08:06:07;;;;;;;16.13;8.50;;;;;;;1.68;92.75;99427.94;1675309;84;21571;-75
2021/12/29 08:08:35;;;;;;;18.17;9.50;;;;;;;1.67;92.82;99440.00;1674093;84;21143;-73
2021/12/29 08:11:02;;;;;;;17.83;10.00;;;;;;;1.71;92.89;99436.92;1675052;84;21011;-76
2021/12/29 08:13:30;;;;;;;15.77;9.53;;;;;;;1.72;92.90;99441.23;1700201;83;21140;-74
2021/12/29 08:15:57;;;;;;;14.23;8.93;;;;;;;1.70;92.80;99441.24;1703451;83;21051;-74
2021/12/29 08:18:24;;;;;;;16.10;9.17;;;;;;;1.70;92.75;99445.12;1694510;83;21000;-74
2021/12/29 08:20:51;;;;;;;14.77;9.00;;;;;;;1.71;92.74;99446.81;1704813;83;21875;-75
2021/12/29 08:23:18;;;;;;;17.83;10.10;;;;;;;1.73;92.76;99453.26;1706437;83;21033;-74
2021/12/29 08:25:45;;;;;;;23.83;13.70;;;;;;;1.74;92.83;99453.22;1699392;83;21012;-74
2021/12/29 08:28:13;;;;;;;24.90;14.40;;;;;;;1.77;92.68;99458.36;1704528;83;21024;-72
2021/12/29 08:30:41;;;;;;;23.83;14.10;;;;;;;1.77;92.78;99453.20;1670345;84;21459;-75
2021/12/29 08:33:08;;;;;;;24.63;12.60;;;;;;;1.83;92.85;99457.82;1696577;84;21017;-75
2021/12/29 08:35:35;;;;;;;19.03;11.37;;;;;;;1.87;92.94;99464.66;1716352;83;21110;-75
2021/12/29 08:38:03;;;;;;;18.93;10.17;;;;;;;1.89;92.92;99461.17;1711486;83;21008;-74
2021/12/29 08:40:32;;;;;;;17.83;10.13;;;;;;;1.90;92.86;99462.87;1706914;83;21043;-76
2021/12/29 08:43:02;;;;;;;16.63;9.83;;;;;;;1.95;93.03;99457.63;1710149;83;21058;-77
2021/12/29 08:45:29;;;;;;;17.77;9.60;;;;;;;1.97;93.01;99454.14;1697114;83;21231;-75
2021/12/29 08:47:59;;;;;;;16.77;10.07;;;;;;;1.99;92.95;99461.41;1698138;84;21462;-74
2021/12/29 08:50:31;;;;;;;19.13;10.33;;;;;;;2.03;93.00;99461.39;1697789;84;21000;-73
2021/12/29 08:53:03;;;;;;;21.20;10.83;;;;;;;2.05;93.02;99470.82;1700422;83;21027;-74
2021/12/29 08:55:33;;;;;;;21.90;12.07;;;;;;;2.10;93.09;99468.14;1688798;83;21162;-74
2021/12/29 08:58:01;;;;;;;27.40;13.25;;;;;;;2.12;92.89;99467.67;1701872;83;22168;-75
2021/12/29 09:00:28;;;;;;;70.83;33.60;;;;;;;2.12;92.76;99471.11;1700885;83;20995;-73
2021/12/29 09:02:55;;;;;;;65.63;37.50;;;;;;;2.13;92.60;99469.37;1688827;83;21083;-74
2021/12/29 09:05:22;;;;;;;42.77;26.43;;;;;;;2.10;92.42;99468.98;1666641;84;21083;-74
2021/12/29 09:07:49;;;;;;;33.17;21.23;;;;;;;2.09;92.47;99467.73;1671637;85;21176;-74
2021/12/29 09:10:19;;;;;;;26.90;16.77;;;;;;;2.07;92.49;99466.45;1698633;84;22002;-74
2021/12/29 09:12:49;;;;;;;31.33;21.57;;;;;;;2.08;92.59;99461.72;1673725;84;21035;-73
2021/12/29 09:15:16;;;;;;;31.07;24.98;;;;;;;2.05;92.41;99456.61;1697637;84;21015;-74
2021/12/29 09:17:44;;;;;;;26.17;18.60;;;;;;;2.03;92.22;99457.51;1680870;84;21051;-73
2021/12/29 09:20:24;;;;;;;31.57;20.37;;;;;;;2.07;92.61;99454.83;1681994;84;21130;-79
2021/12/29 09:22:44;;;;;;;35.53;20.27;;;;;;;2.14;92.63;99459.02;1674487;85;22170;-74
2021/12/29 09:25:11;;;;;;;26.53;14.33;;;;;;;2.19;92.56;99461.09;1679671;84;21032;-72
2021/12/29 09:27:38;;;;;;;22.57;13.33;;;;;;;2.26;92.69;99469.57;1681835;84;21044;-73
2021/12/29 09:30:06;;;;;;;22.27;14.07;;;;;;;2.36;92.83;99474.16;1673700;84;21020;-73
2021/12/29 09:32:33;;;;;;;20.07;13.00;;;;;;;2.44;92.93;99464.52;1702027;83;21087;-74
2021/12/29 09:35:01;;;;;;;26.47;15.17;;;;;;;2.56;93.20;99464.27;1703189;84;21275;-73
2021/12/29 09:37:30;;;;;;;23.87;15.30;;;;;;;2.67;93.12;99467.50;1701707;84;21087;-73
2021/12/29 09:39:58;;;;;;;29.73;18.77;;;;;;;2.78;93.18;99470.32;1675661;85;21074;-73
2021/12/29 09:42:25;;;;;;;36.17;20.13;;;;;;;2.89;93.27;99472.24;1698208;84;21118;-73
2021/12/29 09:44:53;;;;;;;20.40;12.97;;;;;;;3.01;93.21;99485.37;1685607;84;21626;-73
2021/12/29 09:47:20;;;;;;;19.10;11.77;;;;;;;3.16;93.58;99491.95;1699568;84;21294;-73
2021/12/29 09:49:47;;;;;;;20.80;13.37;;;;;;;3.29;93.49;99486.92;1706307;84;21086;-74
2021/12/29 09:52:14;;;;;;;23.87;15.13;;;;;;;3.33;93.24;99485.98;1685445;84;21023;-75
2021/12/29 09:54:41;;;;;;;25.30;15.60;;;;;;;3.37;93.19;99482.87;1706659;82;21098;-76
2021/12/29 09:57:08;;;;;;;32.10;17.00;;;;;;;3.36;92.98;99478.14;1712472;82;21039;-73
2021/12/29 09:59:35;;;;;;;32.00;17.03;;;;;;;3.40;93.09;99475.87;1706549;83;22060;-73
2021/12/29 10:02:03;;;;;;;29.00;14.80;;;;;;;3.45;93.16;99486.14;1706920;82;21090;-74
2021/12/29 10:04:34;;;;;;;20.97;12.70;;;;;;;3.51;93.33;99482.11;1704876;82;21043;-73
2021/12/29 10:07:13;;;;;;;17.30;11.47;;;;;;;3.55;93.40;99494.12;1711330;81;21460;-73
2021/12/29 10:09:40;;;;;;;21.40;12.80;;;;;;;3.61;93.54;99491.83;1733681;81;20980;-75
2021/12/29 10:12:10;;;;;;;21.17;12.63;;;;;;;3.60;93.27;99490.95;1729042;81;21935;-74
2021/12/29 10:14:38;;;;;;;22.20;13.00;;;;;;;3.60;93.10;99490.95;1728686;82;21033;-74
2021/12/29 10:17:12;;;;;;;19.50;11.33;;;;;;;3.57;93.04;99492.33;1734319;82;21475;-75
2021/12/29 10:19:39;;;;;;;17.00;10.90;;;;;;;3.59;93.17;99500.92;1731658;82;21034;-74
2021/12/29 10:22:07;;;;;;;20.70;12.30;;;;;;;3.60;93.10;99503.91;1731242;81;21136;-74
2021/12/29 10:24:34;;;;;;;20.97;11.73;;;;;;;3.60;93.07;99506.50;1728746;81;21294;-74
2021/12/29 10:27:01;;;;;;;40.43;24.47;;;;;;;3.58;92.71;99529.03;1727630;81;21426;-75
2021/12/29 10:29:29;;;;;;;48.70;24.90;;;;;;;3.55;92.61;99530.40;1733551;81;21022;-74
2021/12/29 10:32:04;;;;;;;32.20;16.83;;;;;;;3.49;92.53;99534.39;1730491;82;21042;-74
2021/12/29 10:34:32;;;;;;;24.57;15.17;;;;;;;3.43;92.35;99539.72;1730157;81;21057;-74
2021/12/29 10:37:07;;;;;;;29.83;16.53;;;;;;;3.41;92.54;99536.30;1739622;81;21111;-73
2021/12/29 10:39:39;;;;;;;32.97;18.97;;;;;;;3.36;92.29;99532.53;1731947;81;21046;-74
2021/12/29 10:42:21;;;;;;;38.77;24.23;;;;;;;3.31;92.36;99537.80;1734800;82;21031;-73
2021/12/29 10:44:57;;;;;;;40.53;24.80;;;;;;;3.27;92.39;99537.47;1730401;82;21000;-73
2021/12/29 10:47:28;;;;;;;31.60;20.33;;;;;;;3.25;92.41;99537.09;1731633;82;21006;-73
2021/12/29 10:50:09;;;;;;;34.53;17.90;;;;;;;3.20;92.39;99544.95;1726234;82;21956;-74
2021/12/29 10:52:45;;;;;;;32.33;17.77;;;;;;;3.17;92.50;99551.48;1743558;81;21016;-73
2021/12/29 10:55:25;;;;;;;29.93;18.20;;;;;;;3.15;92.55;99552.40;1737101;81;21565;-73
2021/12/29 10:58:14;;;;;;;29.23;17.80;;;;;;;3.10;92.58;99553.77;1736201;81;21070;-73
2021/12/29 11:00:45;;;;;;;32.43;19.17;;;;;;;3.07;92.78;99555.14;1743524;81;21047;-73
2021/12/29 11:03:19;;;;;;;37.90;18.53;;;;;;;3.10;93.01;99561.55;1749191;81;21126;-73
2021/12/29 11:05:58;;;;;;;31.07;17.80;;;;;;;3.08;92.97;99556.86;1736661;81;21514;-73
2021/12/29 11:08:19;;;;;;;33.73;19.50;;;;;;;3.09;93.08;99550.78;1730767;81;21476;-74
2021/12/29 11:10:47;;;;;;;35.50;21.87;;;;;;;3.09;93.15;99552.92;1730495;82;21110;-73
2021/12/29 11:13:29;;;;;;;42.37;21.47;;;;;;;3.13;93.16;99556.30;1731478;81;22101;-73
2021/12/29 11:15:59;;;;;;;61.17;26.50;;;;;;;3.14;93.19;99546.38;1731030;82;21131;-73
2021/12/29 11:18:28;;;;;;;101.58;37.03;;;;;;;3.17;93.26;99550.19;1734948;81;21011;-78
2021/12/29 11:20:58;;;;;;;98.47;38.27;;;;;;;3.15;92.98;99551.11;1731140;81;21035;-73
2021/12/29 11:23:24;;;;;;;85.73;34.80;;;;;;;3.12;93.02;99552.86;1737601;81;21587;-73
2021/12/29 11:25:52;;;;;;;67.93;30.63;;;;;;;3.15;93.16;99550.66;1733188;81;21022;-74
2021/12/29 11:28:26;;;;;;;60.17;35.17;;;;;;;3.16;93.10;99551.09;1737083;82;21179;-73
2021/12/29 11:30:56;;;;;;;84.27;36.13;;;;;;;3.15;93.01;99555.84;1736691;82;21081;-72
2021/12/29 11:33:24;;;;;;;90.70;33.92;;;;;;;3.18;93.23;99562.69;1732776;81;21050;-73
2021/12/29 11:35:53;;;;;;;62.60;27.77;;;;;;;3.18;93.09;99551.03;1738658;81;21036;-73
2021/12/29 11:38:23;;;;;;;78.60;32.20;;;;;;;3.17;93.00;99550.19;1737436;81;21011;-73
2021/12/29 11:40:58;;;;;;;76.12;32.78;;;;;;;3.18;92.98;99554.92;1740047;82;21862;-77
2021/12/29 11:43:25;;;;;;;63.97;32.77;;;;;;;3.20;93.13;99554.45;1726133;82;21376;-74
2021/12/29 11:45:56;;;;;;;50.27;29.03;;;;;;;3.27;93.26;99558.19;1741518;82;21039;-72